Time;durP1;ratioP1;P1;durP2;ratioP2;P2;SDS_P1;SDS_P2;PMS_P1;PMS_P2;Temp;Humidity;BMP_temperature;BMP_pressure;BME280_temperature;BME280_humidity;BME280_pressure;Samples;Min_cycle;Max_cycle;Signal;HPM_P1;HPM_P2
2023/07/05 00:01:43;;;;;;;;;;;13.40;79.00;;;;;;4998429;28;20013;-90
2023/07/05 00:04:11;;;;;;;;;;;13.40;79.00;;;;;;4981111;28;19932;-90
2023/07/05 00:06:39;;;;;;;;;;;13.50;79.00;;;;;;4996929;28;20559;-90
2023/07/05 00:09:08;;;;;;;;;;;13.50;78.90;;;;;;5002361;28;19932;-91
2023/07/05 00:11:36;;;;;;;;;;;13.50;78.90;;;;;;5017792;28;19925;-91
2023/07/05 00:14:05;;;;;;;;;;;13.40;78.90;;;;;;4997604;28;19925;-92
2023/07/05 00:16:30;;;;;;;;;;;13.40;78.90;;;;;;5004478;28;20044;-92
2023/07/05 00:18:59;;;;;;;;;;;13.40;79.30;;;;;;4996848;28;20428;-90
2023/07/05 00:21:28;;;;;;;;;;;13.40;79.20;;;;;;5017754;28;19932;-90
2023/07/05 00:23:56;;;;;;;;;;;13.40;79.40;;;;;;5013714;28;19932;-90
2023/07/05 00:26:24;;;;;;;;;;;13.40;79.40;;;;;;5011452;28;19972;-90
2023/07/05 00:28:53;;;;;;;;;;;13.40;79.50;;;;;;4983827;28;19933;-91
2023/07/05 00:31:19;;;;;;;;;;;13.40;79.60;;;;;;5012016;28;20284;-91
2023/07/05 00:33:48;;;;;;;;;;;13.40;79.60;;;;;;5002337;28;19935;-90
2023/07/05 00:36:13;;;;;;;;;;;13.40;79.50;;;;;;4988027;28;20289;-91
2023/07/05 00:38:42;;;;;;;;;;;13.40;79.50;;;;;;5012345;28;19924;-91
2023/07/05 00:41:11;;;;;;;;;;;13.30;80.00;;;;;;4999068;28;19974;-90
2023/07/05 00:43:44;;;;;;;;;;;13.30;80.00;;;;;;4997530;28;20412;-91
2023/07/05 00:46:29;;;;;;;;;;;13.30;80.00;;;;;;5015031;28;19978;-91
2023/07/05 00:48:59;;;;;;;;;;;13.30;80.20;;;;;;5007810;28;19929;-91
2023/07/05 00:51:47;;;;;;;;;;;13.30;80.10;;;;;;5008179;28;20432;-90
2023/07/05 00:54:15;;;;;;;;;;;13.30;80.10;;;;;;5004003;28;19970;-90
2023/07/05 00:56:52;;;;;;;;;;;13.30;80.10;;;;;;5001111;28;20516;-91
2023/07/05 00:59:19;;;;;;;;;;;13.30;80.20;;;;;;5009702;28;19978;-89
2023/07/05 01:01:45;;;;;;;;;;;13.30;80.30;;;;;;5014664;28;19925;-91
2023/07/05 01:04:13;;;;;;;;;;;13.20;80.30;;;;;;4999808;28;19932;-91
2023/07/05 01:06:43;;;;;;;;;;;13.20;80.50;;;;;;5012204;28;19925;-91
2023/07/05 01:09:08;;;;;;;;;;;13.20;80.50;;;;;;5013276;28;19986;-91
2023/07/05 01:12:21;;;;;;;;;;;13.20;80.50;;;;;;5005251;28;19992;-90
2023/07/05 01:14:49;;;;;;;;;;;13.30;80.80;;;;;;4944595;28;19926;-90
2023/07/05 01:17:44;;;;;;;;;;;13.20;80.80;;;;;;4927115;28;19949;-90
2023/07/05 01:20:44;;;;;;;;;;;13.30;80.80;;;;;;4980264;28;19925;-90
2023/07/05 01:23:24;;;;;;;;;;;13.30;80.90;;;;;;5005919;28;20389;-90
2023/07/05 01:26:11;;;;;;;;;;;13.30;80.70;;;;;;5004735;28;19925;-90
2023/07/05 01:28:55;;;;;;;;;;;13.30;80.70;;;;;;4979803;28;19932;-92
2023/07/05 01:32:03;;;;;;;;;;;13.30;80.80;;;;;;4996884;28;19926;-90
2023/07/05 01:34:35;;;;;;;;;;;13.30;80.80;;;;;;4972053;28;20398;-91
2023/07/05 01:37:07;;;;;;;;;;;13.30;80.90;;;;;;4992412;28;20011;-90
2023/07/05 01:39:33;;;;;;;;;;;13.30;81.00;;;;;;5013960;28;20350;-91
2023/07/05 01:41:59;;;;;;;;;;;13.30;80.80;;;;;;5006856;28;20003;-91
2023/07/05 01:44:25;;;;;;;;;;;13.30;81.00;;;;;;4997109;28;19933;-90
2023/07/05 01:47:10;;;;;;;;;;;13.30;81.30;;;;;;5007556;28;19958;-90
2023/07/05 01:49:53;;;;;;;;;;;13.30;81.30;;;;;;5001337;28;20281;-92
2023/07/05 01:52:21;;;;;;;;;;;13.30;81.40;;;;;;4994206;28;20092;-91
2023/07/05 01:55:01;;;;;;;;;;;13.30;81.70;;;;;;5016085;28;19925;-94
2023/07/05 01:57:29;;;;;;;;;;;13.30;81.90;;;;;;4984083;28;19937;-93
2023/07/05 02:00:17;;;;;;;;;;;13.30;81.90;;;;;;4997128;28;19930;-93
2023/07/05 02:03:07;;;;;;;;;;;13.30;82.10;;;;;;4975748;28;19933;-93
2023/07/05 02:05:39;;;;;;;;;;;13.30;82.00;;;;;;4961110;28;20398;-96
2023/07/05 02:26:55;;;;;;;;;;;13.30;82.90;;;;;;4758871;30;19925;-96
2023/07/05 02:30:14;;;;;;;;;;;;;;;;;;;;;
2023/07/05 02:32:50;;;;;;;;;;;13.30;82.90;;;;;;4695951;30;19942;-96
2023/07/05 04:51:42;;;;;;;;;;;14.00;85.10;;;;;;6160562;22;19944;-93
2023/07/05 05:01:37;;;;;;;;;;;14.00;84.70;;;;;;6093789;23;19956;-93
2023/07/05 05:04:43;;;;;;;;;;;14.00;84.60;;;;;;6166068;23;19998;-94
2023/07/05 05:07:09;;;;;;;;;;;14.00;84.40;;;;;;6113178;23;19917;-94
2023/07/05 05:13:34;;;;;;;;;;;14.00;83.50;;;;;;5981817;23;20489;-92
2023/07/05 05:29:53;;;;;;;;;;;;;;;;;;;;;
2023/07/05 05:32:43;;;;;;;;;;;13.60;80.00;;;;;;6177036;23;19920;-93
2023/07/05 05:38:49;;;;;;;;;;;13.60;81.00;;;;;;6045713;23;19995;-95
2023/07/05 05:48:32;;;;;;;;;;;13.60;80.40;;;;;;6087811;23;19925;-96
2023/07/05 05:51:23;;;;;;;;;;;13.60;79.00;;;;;;6050906;23;19921;-96
2023/07/05 05:54:13;;;;;;;;;;;13.70;79.70;;;;;;6159188;23;20340;-96
2023/07/05 05:56:45;;;;;;;;;;;13.80;79.30;;;;;;6156386;23;19916;-96
2023/07/05 05:59:29;;;;;;;;;;;13.90;78.60;;;;;;6136747;23;19993;-96
2023/07/05 06:02:16;;;;;;;;;;;13.90;78.30;;;;;;6059944;23;19927;-96
2023/07/05 06:05:05;;;;;;;;;;;13.90;78.40;;;;;;6008301;23;20000;-94
2023/07/05 06:07:39;;;;;;;;;;;13.90;78.00;;;;;;6051436;23;21788;-96
2023/07/05 06:10:23;;;;;;;;;;;13.90;77.70;;;;;;5931066;24;19929;-95
2023/07/05 06:12:49;;;;;;;;;;;13.80;78.20;;;;;;5912134;23;19923;-96
2023/07/05 06:15:43;;;;;;;;;;;13.70;78.80;;;;;;5935335;24;19930;-95
2023/07/05 06:18:44;;;;;;;;;;;;;;;;;;;;;
2023/07/05 06:21:16;;;;;;;;;;;13.70;77.50;;;;;;5999740;23;19922;-93
2023/07/05 06:27:23;;;;;;;;;;;13.70;77.00;;;;;;5975507;23;20307;-96
2023/07/05 06:33:39;;;;;;;;;;;13.70;77.40;;;;;;6019269;23;20235;-96
2023/07/05 06:36:37;;;;;;;;;;;13.70;77.20;;;;;;5959875;23;19922;-96
2023/07/05 06:39:22;;;;;;;;;;;13.70;77.10;;;;;;5989792;23;19922;-96
2023/07/05 06:42:31;;;;;;;;;;;13.70;77.50;;;;;;6133554;23;19949;-96
2023/07/05 07:01:39;;;;;;;;;;;14.20;75.80;;;;;;5957038;23;20061;-96
2023/07/05 07:31:13;;;;;;;;;;;14.20;74.20;;;;;;6010532;23;19923;-96
2023/07/05 09:25:25;;;;;;;;;;;11.10;84.50;;;;;;5899710;24;20351;-91
2023/07/05 09:28:40;;;;;;;;;;;11.10;85.00;;;;;;5873135;24;20025;-91
2023/07/05 09:36:06;;;;;;;;;;;11.40;85.10;;;;;;5788152;24;20454;-94
2023/07/05 09:59:19;;;;;;;;;;;;;;;;;;;;;
2023/07/05 10:02:22;;;;;;;;;;;12.80;82.80;;;;;;6153332;23;19923;-91
2023/07/05 10:05:25;;;;;;;;;;;12.80;82.40;;;;;;6102813;23;19925;-92
2023/07/05 10:09:06;;;;;;;;;;;;;;;;;;;;;
2023/07/05 10:12:54;;;;;;;;;;;;;;;;;;;;;
2023/07/05 11:08:26;;;;;;;;;;;14.90;72.30;;;;;;6222143;22;19985;-93
2023/07/05 11:28:04;;;;;;;;;;;;;;;;;;;;;
2023/07/05 11:31:01;;;;;;;;;;;;;;;;;;;;;
2023/07/05 11:44:28;;;;;;;;;;;15.80;70.30;;;;;;5935883;23;19953;-95
2023/07/05 11:54:42;;;;;;;;;;;15.80;69.10;;;;;;5956851;24;19975;-93
2023/07/05 12:00:37;;;;;;;;;;;;;;;;;;;;;
2023/07/05 12:21:12;;;;;;;;;;;14.50;77.50;;;;;;6095055;23;19968;-94
2023/07/05 12:23:52;;;;;;;;;;;14.10;78.20;;;;;;6020555;23;19925;-92
2023/07/05 12:29:56;;;;;;;;;;;13.70;79.70;;;;;;5991420;23;19923;-92
2023/07/05 12:49:37;;;;;;;;;;;13.00;80.60;;;;;;6007180;23;19926;-93
2023/07/05 12:52:03;;;;;;;;;;;12.90;80.60;;;;;;6040921;23;20004;-90
2023/07/05 12:54:30;;;;;;;;;;;12.90;80.80;;;;;;5990672;23;20000;-92
2023/07/05 13:04:30;;;;;;;;;;;;;;;;;;;;;
2023/07/05 13:07:35;;;;;;;;;;;12.50;82.00;;;;;;5897856;24;19919;-91
2023/07/05 13:10:22;;;;;;;;;;;12.50;82.10;;;;;;5751200;24;19925;-93
2023/07/05 13:23:37;;;;;;;;;;;12.10;83.40;;;;;;5881148;24;19927;-93
2023/07/05 13:29:10;;;;;;;;;;;12.10;84.10;;;;;;5943676;23;19959;-94
2023/07/05 13:34:32;;;;;;;;;;;12.10;84.00;;;;;;6011616;23;19925;-93
2023/07/05 13:37:30;;;;;;;;;;;12.10;84.30;;;;;;6035272;23;19922;-94
2023/07/05 13:40:31;;;;;;;;;;;12.10;84.20;;;;;;6136923;23;19946;-93
2023/07/05 13:43:36;;;;;;;;;;;12.20;84.50;;;;;;6136018;23;19924;-96
2023/07/05 13:49:38;;;;;;;;;;;;;;;;;;;;;
2023/07/05 13:52:38;;;;;;;;;;;12.20;84.50;;;;;;6118487;23;20306;-94
2023/07/05 13:55:38;;;;;;;;;;;12.30;84.20;;;;;;6096801;23;19932;-94
2023/07/05 14:02:00;;;;;;;;;;;12.30;83.20;;;;;;5978618;23;19937;-93
2023/07/05 14:04:48;;;;;;;;;;;;;;;;;;;;;
2023/07/05 14:15:05;;;;;;;;;;;12.50;82.80;;;;;;5851316;24;19977;-92
2023/07/05 14:18:33;;;;;;;;;;;12.50;82.60;;;;;;5845283;24;20500;-96
2023/07/05 14:21:10;;;;;;;;;;;12.50;82.30;;;;;;5916837;24;19919;-92
2023/07/05 14:27:57;;;;;;;;;;;12.80;82.60;;;;;;5794034;24;20419;-94
2023/07/05 14:41:10;;;;;;;;;;;12.90;82.30;;;;;;5617274;22;15778850;-93
2023/07/05 14:56:31;;;;;;;;;;;;;;;;;;;;;
2023/07/05 14:59:21;;;;;;;;;;;;;;;;;;;;;
2023/07/05 15:02:24;;;;;;;;;;;13.10;81.10;;;;;;6056293;23;20637;-90
2023/07/05 15:05:15;;;;;;;;;;;13.30;81.40;;;;;;6125268;23;19932;-93
2023/07/05 15:07:58;;;;;;;;;;;;;;;;;;;;;
2023/07/05 15:10:33;;;;;;;;;;;13.50;80.40;;;;;;6129146;23;19974;-93
2023/07/05 15:13:07;;;;;;;;;;;13.50;78.30;;;;;;6150474;22;19919;-91
2023/07/05 15:16:20;;;;;;;;;;;;;;;;;;;;;
2023/07/05 15:23:21;;;;;;;;;;;;;;;;;;;;;
2023/07/05 15:25:56;;;;;;;;;;;13.50;77.60;;;;;;6204911;22;19923;-94
2023/07/05 15:28:28;;;;;;;;;;;13.50;77.00;;;;;;6191334;23;19927;-93
2023/07/05 15:31:10;;;;;;;;;;;;;;;;;;;;;
2023/07/05 15:33:59;;;;;;;;;;;13.60;76.80;;;;;;6170611;23;19930;-96
2023/07/05 15:40:27;;;;;;;;;;;;;;;;;;;;;
2023/07/05 15:43:29;;;;;;;;;;;14.00;74.80;;;;;;6240055;22;19931;-94
2023/07/05 15:46:26;;;;;;;;;;;14.00;74.60;;;;;;6034596;23;19985;-93
2023/07/05 15:49:40;;;;;;;;;;;14.00;74.80;;;;;;5989357;23;19921;-92
2023/07/05 15:52:36;;;;;;;;;;;;;;;;;;;;;
2023/07/05 15:55:07;;;;;;;;;;;14.00;74.70;;;;;;6039952;23;19921;-94
2023/07/05 16:01:31;;;;;;;;;;;14.10;73.00;;;;;;6077464;23;19998;-93
2023/07/05 16:04:06;;;;;;;;;;;14.20;72.90;;;;;;6071922;23;19921;-92
2023/07/05 16:07:07;;;;;;;;;;;14.30;72.90;;;;;;6115762;23;20611;-95
2023/07/05 16:10:00;;;;;;;;;;;;;;;;;;;;;
2023/07/05 16:13:01;;;;;;;;;;;14.30;73.70;;;;;;6126080;23;20318;-93
2023/07/05 16:18:58;;;;;;;;;;;14.40;73.60;;;;;;6139226;23;20004;-92
2023/07/05 16:25:32;;;;;;;;;;;;;;;;;;;;;
2023/07/05 16:28:05;;;;;;;;;;;14.60;71.00;;;;;;6090632;23;20087;-95
2023/07/05 16:30:59;;;;;;;;;;;14.70;70.50;;;;;;6071326;23;19921;-94
2023/07/05 16:40:22;;;;;;;;;;;14.70;70.70;;;;;;6107719;23;19924;-95
2023/07/05 16:43:02;;;;;;;;;;;14.80;70.00;;;;;;6114591;23;20247;-94
2023/07/05 16:46:20;;;;;;;;;;;14.80;70.20;;;;;;6151462;23;19983;-96
2023/07/05 16:49:21;;;;;;;;;;;14.80;69.20;;;;;;6056298;23;20916;-94
2023/07/05 16:52:28;;;;;;;;;;;14.80;69.50;;;;;;5882609;24;19934;-95
2023/07/05 16:55:43;;;;;;;;;;;14.90;69.90;;;;;;5926584;24;19930;-96
2023/07/05 16:58:31;;;;;;;;;;;15.00;70.20;;;;;;5885536;24;19927;-92
2023/07/05 17:01:21;;;;;;;;;;;;;;;;;;;;;
2023/07/05 17:10:42;;;;;;;;;;;14.90;70.00;;;;;;5942382;24;19923;-94
2023/07/05 17:13:17;;;;;;;;;;;14.90;70.40;;;;;;5885186;24;19952;-94
2023/07/05 17:15:42;;;;;;;;;;;14.90;70.80;;;;;;5946366;23;19954;-94
2023/07/05 17:29:17;;;;;;;;;;;14.90;72.90;;;;;;5994942;23;19946;-94
2023/07/05 17:56:23;;;;;;;;;;;;;;;;;;;;;
2023/07/05 18:02:51;;;;;;;;;;;15.20;73.20;;;;;;5957206;24;19925;-95
2023/07/05 18:09:13;;;;;;;;;;;15.30;72.20;;;;;;6061714;23;19945;-94
2023/07/05 18:15:29;;;;;;;;;;;15.20;72.20;;;;;;5950586;24;19923;-94
2023/07/05 18:21:57;;;;;;;;;;;15.00;72.30;;;;;;5814789;24;19924;-95
2023/07/05 18:24:55;;;;;;;;;;;14.90;72.20;;;;;;5834348;24;19924;-93
2023/07/05 18:27:54;;;;;;;;;;;14.80;72.10;;;;;;5821357;24;19932;-93
2023/07/05 19:21:39;;;;;;;;;;;14.30;72.00;;;;;;6213372;23;19924;-93
2023/07/05 19:51:18;;;;;;;;;;;13.90;72.50;;;;;;5845877;24;20017;-94
2023/07/05 20:17:50;;;;;;;;;;;13.60;73.00;;;;;;4355086;27;21622454;-93
2023/07/05 20:20:34;;;;;;;;;;;13.50;73.40;;;;;;5074213;28;19968;-93
2023/07/05 20:23:45;;;;;;;;;;;13.40;73.40;;;;;;5070688;28;19935;-94
2023/07/05 20:26:53;;;;;;;;;;;13.30;73.60;;;;;;4964013;28;19938;-94
2023/07/05 20:30:04;;;;;;;;;;;13.30;73.50;;;;;;4922436;29;19950;-93
2023/07/05 20:36:15;;;;;;;;;;;13.30;73.40;;;;;;4895109;29;19928;-93
2023/07/05 20:39:29;;;;;;;;;;;13.30;73.30;;;;;;4892662;29;19927;-93
2023/07/05 20:42:15;;;;;;;;;;;13.30;73.40;;;;;;4883208;29;19971;-92
2023/07/05 20:45:29;;;;;;;;;;;;;;;;;;;;;
2023/07/05 20:51:31;;;;;;;;;;;;;;;;;;;;;
2023/07/05 20:58:28;;;;;;;;;;;;;;;;;;;;;
